M I D A S
Marine Information and Data Acquisition System
Tripno 900 of the Zeeleeuw from 2005-05-13 11:42:02 to 2005-05-13 13:38:10
Back to CruiseResearch ActivitiesStationsMapUnderway DataData graphs

EquipmentUnitsComment
TimeDGPSUTC
LatitudeDGPSDM.mWGS84
LongitudeDGPSDM.mWGS84
HeadingGyrodeg 
SOGDGPSknotsSpeed over ground
COGDGPSdegCourse over ground
DepthEcho soundermeters200 kHz
Missing or incorrect values are displayed as -999
Navigation data collected by the RV Zeeleeuw from 2005-05-13 07:17:48 to 2005-05-13 13:50:20
Time Latitude Longitude Heading SOG COG Depth
2005-05-13 07:18:55 51°13.611 2°56.047 118.3 3.6 296 -999
2005-05-13 07:19:55 51°13.649 2°55.932 127.6 5.4 303 -999
2005-05-13 07:20:54 51°13.701 2°55.815 127.7 5.8 306 -999
2005-05-13 07:21:54 51°13.733 2°55.731 107 0.5 316 10.4
2005-05-13 07:22:54 51°13.737 2°55.738 52.4 1.2 246 9.5
2005-05-13 07:23:54 51°13.725 2°55.706 25.2 0.6 326 10.2
2005-05-13 07:24:54 51°13.766 2°55.677 341 4.1 334 9.3
2005-05-13 07:25:52 51°13.848 2°55.625 343.4 6.1 340 9.4
2005-05-13 07:26:53 51°13.957 2°55.554 342.3 7.7 337 9.4
2005-05-13 07:27:54 51°14.088 2°55.465 341.6 8.4 336 9
2005-05-13 07:28:54 51°14.208 2°55.357 328 8.2 326 9.9
2005-05-13 07:29:54 51°14.316 2°55.161 310.3 10.7 305 9.9
2005-05-13 07:30:54 51°14.403 2°54.872 294.8 13.2 287 9.7
2005-05-13 07:31:54 51°14.48 2°54.528 300.1 14 292 9.8
2005-05-13 07:32:54 51°14.567 2°54.183 299.9 14 293 9.7
2005-05-13 07:33:54 51°14.654 2°53.84 299.9 14 293 10.1
2005-05-13 07:34:54 51°14.736 2°53.492 294.9 13.9 286 9.3
2005-05-13 07:35:54 51°14.787 2°53.124 287.2 14.3 280 9.1
2005-05-13 07:36:54 51°14.804 2°52.745 277.2 14.3 272 9.1
2005-05-13 07:37:54 51°14.813 2°52.366 278.7 14.3 271 9.2
2005-05-13 07:38:54 51°14.824 2°51.982 280.3 14.6 273 9.7
2005-05-13 07:39:54 51°14.833 2°51.592 278.8 14.9 270 10
2005-05-13 07:40:53 51°14.842 2°51.209 275.3 14.7 268 10.6
2005-05-13 07:41:53 51°14.785 2°50.878 269.8 10.7 258 11
2005-05-13 07:42:55 51°14.776 2°50.713 263.6 4.6 256 11.5
2005-05-13 07:43:54 51°14.75 2°50.611 261.2 4.1 251 11.3
2005-05-13 07:44:54 51°14.731 2°50.516 274.1 3.8 252 11.2
2005-05-13 07:45:54 51°14.703 2°50.415 250.6 4.1 243 11.3
2005-05-13 07:46:54 51°14.672 2°50.309 252.2 4.6 244 11.4
2005-05-13 07:47:54 51°14.643 2°50.195 259.1 4.5 253 11.2
2005-05-13 07:48:54 51°14.619 2°50.088 260.6 4.2 250 11.3
2005-05-13 07:49:54 51°14.591 2°49.998 239.6 3.7 236 11.5
2005-05-13 07:50:54 51°14.554 2°49.927 214.3 3.3 223 11.4
2005-05-13 07:51:54 51°14.513 2°49.872 192.7 3.1 215 11.2
2005-05-13 07:52:54 51°14.474 2°49.826 182.1 2.9 216 11.1
2005-05-13 07:53:54 51°14.439 2°49.781 184.2 2.8 219 11.1
2005-05-13 07:54:54 51°14.406 2°49.737 184.1 2.6 219 11
2005-05-13 07:55:54 51°14.368 2°49.692 185.6 3.1 214 10.9
2005-05-13 07:56:54 51°14.322 2°49.64 199.5 3.6 215 10.8
2005-05-13 07:57:54 51°14.269 2°49.584 195.3 3.9 215 10.5
2005-05-13 07:58:54 51°14.215 2°49.524 199.9 4 214 10.5
2005-05-13 07:59:54 51°14.163 2°49.461 206 3.9 216 10.2
2005-05-13 08:00:54 51°14.115 2°49.395 211.5 3.9 222 10.1
2005-05-13 08:01:54 51°14.069 2°49.325 215.4 3.7 227 9.8
2005-05-13 08:02:54 51°14.028 2°49.253 222 3.7 230 9.8
2005-05-13 08:03:54 51°13.99 2°49.177 227.4 3.6 235 9.7
2005-05-13 08:04:54 51°13.955 2°49.1 235.4 3.4 232 9.6
2005-05-13 08:05:54 51°13.92 2°49.023 227.1 3.7 237 9.5
2005-05-13 08:06:55 51°13.88 2°48.95 216.8 3.7 230 9.5
2005-05-13 08:07:54 51°13.844 2°48.88 228.6 3.4 232 9.4
2005-05-13 08:08:54 51°13.814 2°48.803 250.1 3.3 241 9.4
2005-05-13 08:09:54 51°13.795 2°48.726 276.3 3.1 250 9.6
2005-05-13 08:10:55 51°13.785 2°48.651 297.9 2.7 258 9.8
2005-05-13 08:11:54 51°13.779 2°48.582 312.7 2.6 265 10
2005-05-13 08:12:54 51°13.781 2°48.513 331.2 2.6 277 10
2005-05-13 08:13:54 51°13.804 2°48.426 328.7 4.4 299 10.3
2005-05-13 08:14:54 51°13.847 2°48.32 332 4.6 306 10.4
2005-05-13 08:15:54 51°13.895 2°48.222 338.8 4.8 311 10.7
2005-05-13 08:16:54 51°13.936 2°48.141 341.9 3.1 300 10.8
2005-05-13 08:17:54 51°13.95 2°48.075 343.4 2.3 280 10.9
2005-05-13 08:18:54 51°13.951 2°48.017 344.9 2.1 260 10.5
2005-05-13 08:19:54 51°13.943 2°47.961 340.2 2.1 247 10.8
2005-05-13 08:20:54 51°13.929 2°47.906 333.4 2.4 250 10.7
2005-05-13 08:21:54 51°13.921 2°47.847 340 2.4 274 10.8
2005-05-13 08:22:54 51°13.933 2°47.795 10.6 1.9 306 10.8
2005-05-13 08:23:54 51°13.951 2°47.777 42.1 0.7 325 10.8
2005-05-13 08:24:54 51°13.951 2°47.757 51.5 0.9 244 10.8
2005-05-13 08:25:54 51°13.943 2°47.73 57.9 1.3 231 10.6
2005-05-13 08:26:54 51°13.926 2°47.692 71.5 1.9 234 10.6
2005-05-13 08:27:54 51°13.905 2°47.65 90.1 2.1 233 10.5
2005-05-13 08:28:54 51°13.881 2°47.615 112.2 1.9 205 10.6
2005-05-13 08:29:54 51°13.86 2°47.629 79.5 1.2 138 10.7
2005-05-13 08:30:54 51°13.873 2°47.635 24.4 1.5 329 10.9
2005-05-13 08:31:54 51°13.885 2°47.595 7.2 1.6 284 10.8
2005-05-13 08:32:54 51°13.912 2°47.579 34.6 2 356 10.8
2005-05-13 08:33:54 51°13.965 2°47.63 47 4.4 40 10.7
2005-05-13 08:34:54 51°14.009 2°47.702 55.9 3.5 53 10.5
2005-05-13 08:35:54 51°14.041 2°47.762 48.4 2.8 42 10.5
2005-05-13 08:36:53 51°14.062 2°47.822 78.9 2.9 84 10.6
2005-05-13 08:37:54 51°14.058 2°47.91 80.5 3.2 92 10.9
2005-05-13 08:38:54 51°14.054 2°47.992 80.1 2.9 87 10.4
2005-05-13 08:39:54 51°14.052 2°48.069 78.2 2.8 95 10.9
2005-05-13 08:40:54 51°14.051 2°48.143 78.2 2.7 87 10.7
2005-05-13 08:41:54 51°14.049 2°48.217 79.1 2.9 96 10.7
2005-05-13 08:42:54 51°14.048 2°48.293 79.3 2.8 95 10.6
2005-05-13 08:43:54 51°14.045 2°48.369 79.7 2.9 95 10.5
2005-05-13 08:44:54 51°14.041 2°48.446 80.5 2.8 96 10.5
2005-05-13 08:45:55 51°14.037 2°48.517 79.5 2.8 99 10.5
2005-05-13 08:46:54 51°14.031 2°48.584 79.7 2.5 96 10.5
2005-05-13 08:47:54 51°14.039 2°48.665 68.7 3.5 74 10.5
2005-05-13 08:48:54 51°14.057 2°48.753 68.2 3.2 74 10.4
2005-05-13 08:49:54 51°14.069 2°48.828 69.7 2.9 83 10.5
2005-05-13 08:50:54 51°14.077 2°48.895 68.9 2.5 76 10.3
2005-05-13 08:51:54 51°14.086 2°48.96 69.4 2.4 85 10.2
2005-05-13 08:52:54 51°14.095 2°49.021 66.7 2.5 78 10.1
2005-05-13 08:53:54 51°14.106 2°49.079 64.4 2.5 74 10.4
2005-05-13 08:54:54 51°14.124 2°49.145 63.4 2.9 69 10.3
2005-05-13 08:55:54 51°14.142 2°49.214 64.5 2.9 72 10.4
2005-05-13 08:56:54 51°14.161 2°49.285 64.7 3 67 10.1
2005-05-13 08:57:54 51°14.18 2°49.359 65.7 3.1 66 10.1
2005-05-13 08:58:54 51°14.196 2°49.433 65.2 3 71 10.3
2005-05-13 08:59:54 51°14.194 2°49.513 93.1 3.6 120 10
2005-05-13 09:00:54 51°14.154 2°49.595 113 4.1 131 9.3
2005-05-13 09:01:55 51°14.072 2°49.595 192.6 5.9 202 8.9
2005-05-13 09:02:54 51°14.016 2°49.482 248.9 4.8 237 8.6
2005-05-13 09:03:54 51°13.988 2°49.38 263.6 4.1 245 8.8
2005-05-13 09:04:54 51°13.972 2°49.291 283.7 3.1 259 8.8
2005-05-13 09:05:54 51°13.989 2°49.202 337.4 4 307 9.3
2005-05-13 09:06:54 51°14.047 2°49.222 52.1 4.6 47 9.7
2005-05-13 09:07:54 51°14.107 2°49.433 68.8 10.7 68 9.2
2005-05-13 09:08:54 51°14.182 2°49.706 67.4 11.4 67 9.1
2005-05-13 09:09:54 51°14.259 2°49.98 68.2 11.3 65 8.8
2005-05-13 09:10:54 51°14.335 2°50.259 68.9 11.5 68 8.8
2005-05-13 09:11:54 51°14.411 2°50.54 68.9 11.5 67 8.7
2005-05-13 09:12:54 51°14.488 2°50.819 69 11.5 66 9.1
2005-05-13 09:13:54 51°14.564 2°51.104 68.7 11.5 67 9.1
2005-05-13 09:14:55 51°14.627 2°51.393 77.8 11.4 77 9
2005-05-13 09:15:54 51°14.66 2°51.69 81 11.6 79 8.9
2005-05-13 09:16:54 51°14.692 2°51.989 81 11.4 79 8.6
2005-05-13 09:17:55 51°14.72 2°52.293 84.7 11.7 87 8.3
2005-05-13 09:18:53 51°14.712 2°52.592 92.9 11.8 94 8.5
2005-05-13 09:19:54 51°14.694 2°52.914 92.9 11.8 94 5.9
2005-05-13 09:20:54 51°14.66 2°53.229 100.5 12.1 103 7.7
2005-05-13 09:21:54 51°14.618 2°53.544 101.8 12.2 103 7.4
2005-05-13 09:22:54 51°14.571 2°53.871 102.8 12.7 106 8.7
2005-05-13 09:23:54 51°14.523 2°54.127 110 7.6 118 9.3
2005-05-13 09:24:54 51°14.472 2°54.249 109 3.9 132 9.2
2005-05-13 09:25:54 51°14.449 2°54.288 99.4 1.6 153 8.8
2005-05-13 09:26:54 51°14.426 2°54.283 100.1 1.9 218 8.8
2005-05-13 09:27:54 51°14.401 2°54.264 107.8 2.1 145 8.7
2005-05-13 09:28:54 51°14.386 2°54.295 76.9 1.2 128 8.7
2005-05-13 09:29:54 51°14.375 2°54.324 74 1.4 111 8.5
2005-05-13 09:30:54 51°14.376 2°54.363 70.6 1.7 88 8.5
2005-05-13 09:31:52 51°14.378 2°54.409 67.7 1.5 84 8.6
2005-05-13 09:32:54 51°14.376 2°54.441 76.2 1.1 112 8.6
2005-05-13 09:33:54 51°14.379 2°54.495 71.1 2.9 79 8.6
2005-05-13 09:34:54 51°14.381 2°54.649 88.6 8.6 91 8.9
2005-05-13 09:35:54 51°14.383 2°54.924 96.7 11.3 102 8.8
2005-05-13 09:36:54 51°14.297 2°55.189 127.6 10.9 127 9.3
2005-05-13 09:37:54 51°14.185 2°55.365 143 8.1 143 10.4
2005-05-13 09:38:54 51°14.078 2°55.454 158.3 7.2 157 9.3
2005-05-13 09:39:54 51°13.962 2°55.531 160.1 7.8 157 8.4
2005-05-13 09:40:54 51°13.857 2°55.602 155.7 6.2 153 8.6
2005-05-13 09:41:54 51°13.779 2°55.683 147.2 5.3 143 8.5
2005-05-13 09:42:55 51°13.717 2°55.779 134.7 5.2 132 10.8
2005-05-13 09:43:54 51°13.668 2°55.877 127 4.2 124 7.9
2005-05-13 09:44:54 51°13.637 2°55.961 121.2 3.4 117 8.1
2005-05-13 09:45:54 51°13.614 2°56.04 117.7 3.2 114 8.1
2005-05-13 09:46:54 51°13.599 2°56.086 125.7 0.7 131 6.5
2005-05-13 09:47:54 51°13.594 2°56.094 119.8 0.2 156 5.8
2005-05-13 09:48:54 51°13.59 2°56.101 127.5 0.1 324 5.9
2005-05-13 09:49:55 51°13.594 2°56.097 114.6 0.5 96 -999
2005-05-13 09:50:54 51°13.593 2°56.103 122.7 0.3 50 5.8
2005-05-13 09:51:54 51°13.595 2°56.101 126.6 -999 294 5.7
2005-05-13 09:52:54 51°13.594 2°56.102 130.7 -999 266 5.8
2005-05-13 09:53:54 51°13.594 2°56.103 129.6 -999 48 5.8
2005-05-13 09:54:55 51°13.595 2°56.103 128.9 -999 314 5.8
2005-05-13 09:55:54 51°13.595 2°56.103 128.7 -999 4 5.8
2005-05-13 09:56:52 51°13.595 2°56.103 128.6 0.1 46 5.8
2005-05-13 09:57:54 51°13.596 2°56.103 126.2 -999 327 5.8
2005-05-13 09:58:55 51°13.596 2°56.103 125.6 -999 328 5.7
2005-05-13 09:59:55 51°13.596 2°56.102 125.6 -999 1 5.8
2005-05-13 10:00:54 51°13.596 2°56.102 125.5 -999 50 5.8
2005-05-13 10:01:54 51°13.596 2°56.102 125.4 -999 276 5.9
2005-05-13 10:02:54 51°13.596 2°56.103 125.3 -999 28 5.8
2005-05-13 10:03:54 51°13.595 2°56.103 125 -999 270 5.9
2005-05-13 10:04:54 51°13.595 2°56.103 125.1 -999 8 5.9
2005-05-13 10:05:54 51°13.595 2°56.103 125.1 -999 347 5.9
2005-05-13 10:06:55 51°13.596 2°56.103 125.1 -999 139 5.9
2005-05-13 10:07:55 51°13.596 2°56.103 124.9 -999 272 5.9
2005-05-13 10:08:54 51°13.596 2°56.103 124.8 -999 16 5.9
2005-05-13 10:09:54 51°13.596 2°56.103 124.8 -999 8 5.9
2005-05-13 10:10:54 51°13.595 2°56.103 124.7 -999 355 5.8
2005-05-13 10:11:55 51°13.595 2°56.103 124.7 -999 6 5.9
2005-05-13 10:12:54 51°13.594 2°56.103 125.1 0.1 329 6
2005-05-13 10:13:54 51°13.594 2°56.103 124.9 -999 2 6
2005-05-13 10:14:54 51°13.594 2°56.103 124.1 -999 73 5.8
2005-05-13 10:15:54 51°13.594 2°56.104 124.8 -999 281 5.9
2005-05-13 10:16:55 51°13.594 2°56.104 124.8 -999 40 5.9
2005-05-13 10:17:54 51°13.594 2°56.103 124.4 -999 303 6
2005-05-13 10:18:54 51°13.594 2°56.103 124.8 -999 270 6
2005-05-13 10:19:54 51°13.594 2°56.103 124.9 -999 352 6
2005-05-13 10:20:54 51°13.595 2°56.103 124.8 -999 292 6
2005-05-13 10:21:54 51°13.595 2°56.103 125 -999 302 6
2005-05-13 10:22:54 51°13.594 2°56.103 124.7 -999 42 6
2005-05-13 10:23:54 51°13.594 2°56.102 124.5 -999 84 5.9
2005-05-13 10:24:54 51°13.594 2°56.102 124.4 -999 97 6
2005-05-13 10:25:54 51°13.594 2°56.103 124.5 -999 112 6
2005-05-13 10:26:54 51°13.594 2°56.103 124.2 -999 294 6
2005-05-13 10:27:55 51°13.594 2°56.103 124.3 -999 352 6
2005-05-13 10:28:54 51°13.594 2°56.103 124.5 -999 314 6
2005-05-13 10:29:55 51°13.594 2°56.103 124.5 -999 35 6
2005-05-13 10:30:54 51°13.594 2°56.103 124.5 -999 217 6.1
2005-05-13 10:31:54 51°13.595 2°56.103 124.5 -999 318 6
2005-05-13 10:32:54 51°13.595 2°56.103 124.5 -999 299 6
2005-05-13 10:33:54 51°13.595 2°56.103 124.5 -999 227 6.1
2005-05-13 10:34:55 51°13.595 2°56.104 124.6 -999 43 6.1
2005-05-13 10:35:54 51°13.594 2°56.104 124.6 -999 50 6.1
2005-05-13 10:36:55 51°13.594 2°56.105 124.7 -999 206 6.1
2005-05-13 10:37:54 51°13.595 2°56.105 124.8 -999 324 6.1
2005-05-13 10:38:55 51°13.595 2°56.104 124.8 -999 346 6.1
2005-05-13 10:39:55 51°13.594 2°56.103 124.8 -999 38 6.1
2005-05-13 10:40:55 51°13.594 2°56.103 124.9 -999 234 6.1
2005-05-13 10:41:54 51°13.594 2°56.103 125 -999 5 6.1
2005-05-13 10:42:54 51°13.594 2°56.103 124.9 -999 237 6.1
2005-05-13 10:43:55 51°13.594 2°56.103 124.8 -999 270 6.1
2005-05-13 10:44:54 51°13.594 2°56.103 124.9 -999 33 6.1
2005-05-13 10:45:55 51°13.594 2°56.103 125.1 -999 342 6.1
2005-05-13 10:46:55 51°13.595 2°56.102 125.1 -999 193 6.1
2005-05-13 10:47:54 51°13.594 2°56.103 125.2 -999 305 6.2
2005-05-13 10:48:54 51°13.595 2°56.103 125.3 -999 237 6.2
2005-05-13 10:49:54 51°13.595 2°56.103 125.4 -999 251 6.2
2005-05-13 10:50:55 51°13.595 2°56.103 125.5 -999 317 6.2
2005-05-13 10:51:54 51°13.595 2°56.103 125.5 -999 49 6.1
2005-05-13 10:52:54 51°13.595 2°56.103 125.5 -999 4 6.2
2005-05-13 10:53:54 51°13.596 2°56.103 125.5 -999 116 6.2
2005-05-13 10:54:54 51°13.596 2°56.103 125.5 -999 -999 6.2
2005-05-13 10:55:55 51°13.594 2°56.102 125.7 -999 329 6.2
2005-05-13 10:56:54 51°13.594 2°56.102 125.7 -999 214 6.2
2005-05-13 10:57:54 51°13.594 2°56.103 125.5 -999 347 6.2
2005-05-13 10:58:54 51°13.595 2°56.103 125.5 -999 107 6.3
2005-05-13 10:59:54 51°13.593 2°56.102 125.5 -999 196 6.2
2005-05-13 11:00:54 51°13.593 2°56.102 125.5 -999 326 6.2
2005-05-13 11:01:54 51°13.593 2°56.102 125.6 -999 323 6.3
2005-05-13 11:02:55 51°13.594 2°56.102 125.7 -999 322 6.3
2005-05-13 11:03:54 51°13.596 2°56.102 125.6 -999 192 6.3
2005-05-13 11:04:54 51°13.596 2°56.102 125.5 -999 333 6.3
2005-05-13 11:05:54 51°13.598 2°56.103 125.5 -999 178 6.3
2005-05-13 11:06:54 51°13.597 2°56.103 125.6 -999 327 6.3
2005-05-13 11:07:55 51°13.595 2°56.103 125.7 -999 222 6.3
2005-05-13 11:08:55 51°13.597 2°56.104 125.6 -999 93 6.3
2005-05-13 11:09:55 51°13.598 2°56.105 125.7 -999 285 6.3
2005-05-13 11:10:54 51°13.594 2°56.103 125.7 -999 260 6.4
2005-05-13 11:11:54 51°13.598 2°56.104 125.7 -999 302 6.3
2005-05-13 11:12:54 51°13.594 2°56.103 125.7 -999 259 6.3
2005-05-13 11:13:54 51°13.593 2°56.102 125.7 -999 310 6.4
2005-05-13 11:14:55 51°13.593 2°56.102 125.7 -999 288 6.3
2005-05-13 11:15:54 51°13.594 2°56.102 125.7 -999 69 6.4
2005-05-13 11:16:54 51°13.593 2°56.102 125.7 -999 308 6.4
2005-05-13 11:17:55 51°13.593 2°56.102 125.6 -999 211 6.4
2005-05-13 11:18:54 51°13.593 2°56.103 125.6 -999 218 6.4
2005-05-13 11:19:55 51°13.593 2°56.103 125.6 -999 323 6.4
2005-05-13 11:20:54 51°13.593 2°56.103 125.6 -999 57 6.4
2005-05-13 11:21:55 51°13.594 2°56.104 125.6 -999 305 6.4
2005-05-13 11:22:54 51°13.595 2°56.104 125.5 -999 255 6.4
2005-05-13 11:23:54 51°13.594 2°56.104 125.5 -999 305 6.4
2005-05-13 11:24:55 51°13.597 2°56.105 125.3 -999 82 6.4
2005-05-13 11:25:54 51°13.595 2°56.103 125.3 -999 283 6.5
2005-05-13 11:26:54 51°13.594 2°56.103 125.4 -999 265 6.5
2005-05-13 11:27:54 51°13.595 2°56.103 125.3 -999 138 6.5
2005-05-13 11:28:54 51°13.595 2°56.103 125.3 -999 174 6.5
2005-05-13 11:29:54 51°13.594 2°56.103 125.3 -999 247 6.5
2005-05-13 11:30:54 51°13.594 2°56.103 125.2 -999 308 6.5
2005-05-13 11:31:54 51°13.595 2°56.104 125.1 -999 171 6.5
2005-05-13 11:32:54 51°13.595 2°56.103 125.2 -999 164 6.5
2005-05-13 11:33:54 51°13.595 2°56.103 124.8 -999 132 6.5
2005-05-13 11:34:55 51°13.596 2°56.103 126.1 -999 332 6.6
2005-05-13 11:35:55 51°13.595 2°56.103 126 0.1 153 6.7
2005-05-13 11:36:55 51°13.595 2°56.103 124.7 0.1 128 6.6
2005-05-13 11:37:54 51°13.596 2°56.103 126 -999 59 6.5
2005-05-13 11:38:55 51°13.596 2°56.103 124.9 0.1 139 6.5
2005-05-13 11:39:54 51°13.596 2°56.103 124 -999 115 6.6
2005-05-13 11:40:54 51°13.596 2°56.103 125 -999 251 6.5
2005-05-13 11:41:55 51°13.595 2°56.103 125.9 0.1 153 6.5
2005-05-13 11:42:54 51°13.595 2°56.103 125.6 -999 189 6.5
2005-05-13 11:43:55 51°13.595 2°56.103 125.5 -999 157 6.6
2005-05-13 11:44:54 51°13.595 2°56.103 125.2 0.1 153 6.6
2005-05-13 11:45:54 51°13.594 2°56.103 125.4 0.1 69 6.6
2005-05-13 11:46:54 51°13.594 2°56.103 116.4 0.1 213 6.6
2005-05-13 11:47:55 51°13.608 2°56.059 118.1 3.2 296 -999
2005-05-13 11:48:55 51°13.637 2°55.954 121.6 4.9 297 -999
2005-05-13 11:49:55 51°13.684 2°55.841 132.6 5.5 308 -999
2005-05-13 11:50:55 51°13.712 2°55.793 114.2 0.8 96 11.2
2005-05-13 11:51:55 51°13.708 2°55.792 78.7 1.1 246 -999
2005-05-13 11:52:55 51°13.698 2°55.746 64 0.5 239 12
2005-05-13 11:53:54 51°13.718 2°55.756 11.6 2.1 359 12.3
2005-05-13 11:54:54 51°13.757 2°55.714 322 3.8 318 9.3
2005-05-13 11:55:54 51°13.85 2°55.624 335.5 8.2 332 9.6
2005-05-13 11:56:55 51°13.977 2°55.518 338.7 8.1 334 9.4
2005-05-13 11:57:55 51°14.084 2°55.434 340.6 6.9 336 10.2
2005-05-13 11:58:54 51°14.211 2°55.33 334.2 9.7 330 10.2
2005-05-13 11:59:55 51°14.337 2°55.141 313.7 10.5 309 10.3
2005-05-13 12:00:54 51°14.48 2°54.942 340.5 12.4 338 9.8
2005-05-13 12:01:54 51°14.679 2°54.829 349.7 12.7 340 9.5
2005-05-13 12:02:54 51°14.88 2°54.715 349.9 12.8 341 9
2005-05-13 12:03:55 51°15.051 2°54.516 316.8 13.4 303 8.2
2005-05-13 12:04:55 51°15.091 2°54.164 275 14.2 268 8.5
2005-05-13 12:05:54 51°15.062 2°53.783 269.2 14.6 263 9.4
2005-05-13 12:06:54 51°15.036 2°53.404 269.5 14.2 263 9.6
2005-05-13 12:07:54 51°15.009 2°53.022 270 14.6 263 10.2
2005-05-13 12:08:54 51°14.981 2°52.639 269.6 14.6 264 10.5
2005-05-13 12:09:54 51°14.945 2°52.258 263.4 14.7 258 10.3
2005-05-13 12:10:55 51°14.9 2°51.921 275.3 9.5 270 10.7
2005-05-13 12:11:54 51°14.897 2°51.746 280.9 5.5 264 11.2
2005-05-13 12:12:55 51°14.853 2°51.62 225 4.9 228 11.1
2005-05-13 12:13:55 51°14.794 2°51.544 207.4 5 212 10.9
2005-05-13 12:14:54 51°14.718 2°51.459 219.4 5.7 221 10.7
2005-05-13 12:15:55 51°14.66 2°51.354 237.9 4.8 233 10.8
2005-05-13 12:16:54 51°14.62 2°51.264 242.4 3.9 233 10.6
2005-05-13 12:17:54 51°14.584 2°51.184 248.9 3.6 234 10.6
2005-05-13 12:18:55 51°14.553 2°51.109 252.5 3.2 237 10.5
2005-05-13 12:19:54 51°14.523 2°51.041 248.5 3.1 237 10.4
2005-05-13 12:20:55 51°14.49 2°50.976 243.6 3.1 223 10.3
2005-05-13 12:21:55 51°14.458 2°50.912 249.2 3.2 236 10.5
2005-05-13 12:22:55 51°14.43 2°50.845 261.2 2.9 241 10.2
2005-05-13 12:23:54 51°14.405 2°50.781 261.9 2.9 234 10.2
2005-05-13 12:24:55 51°14.378 2°50.718 261.4 2.9 233 10.3
2005-05-13 12:25:55 51°14.351 2°50.655 261.7 2.9 233 10.3
2005-05-13 12:26:55 51°14.324 2°50.593 260 2.8 232 9.8
2005-05-13 12:27:55 51°14.296 2°50.532 257.4 2.9 237 10.1
2005-05-13 12:28:54 51°14.268 2°50.469 261.1 2.8 239 9.9
2005-05-13 12:29:55 51°14.241 2°50.403 265.5 3 237 10.1
2005-05-13 12:30:55 51°14.215 2°50.337 267.8 2.9 237 9.9
2005-05-13 12:31:55 51°14.19 2°50.271 270.8 2.7 247 9.9
2005-05-13 12:32:55 51°14.166 2°50.203 273 3.3 236 9.9
2005-05-13 12:33:55 51°14.142 2°50.129 272.1 3.2 244 9.8
2005-05-13 12:34:54 51°14.12 2°50.051 274.3 3.3 247 9.8
2005-05-13 12:35:55 51°14.1 2°49.97 276.6 3.3 249 9.7
2005-05-13 12:36:55 51°14.082 2°49.89 275 3.1 252 9.6
2005-05-13 12:37:55 51°14.062 2°49.809 273.3 3.4 244 9.5
2005-05-13 12:38:55 51°14.038 2°49.73 267.1 3.2 245 9.6
2005-05-13 12:39:55 51°14.014 2°49.65 264.9 3.3 243 10
2005-05-13 12:40:55 51°13.99 2°49.571 268 3.3 247 9.9
2005-05-13 12:41:54 51°13.968 2°49.491 272.7 3.4 244 9.9
2005-05-13 12:42:55 51°13.949 2°49.409 278 3.3 253 10.1
2005-05-13 12:43:55 51°13.937 2°49.322 286.9 3.4 262 10.1
2005-05-13 12:44:55 51°13.926 2°49.222 287.7 3.9 262 10.5
2005-05-13 12:45:55 51°13.921 2°49.136 302.9 2.9 262 10.3
2005-05-13 12:46:54 51°13.913 2°49.07 308.4 2.5 252 10.5
2005-05-13 12:47:55 51°13.901 2°49.012 311.7 2.5 247 10.7
2005-05-13 12:48:55 51°13.888 2°48.959 319.8 2.2 249 10.9
2005-05-13 12:49:55 51°13.907 2°48.905 7.9 2.1 327 11.2
2005-05-13 12:50:55 51°13.922 2°48.912 57.4 0.7 72 11.2
2005-05-13 12:51:55 51°13.915 2°48.923 68.2 0.7 182 11.4
2005-05-13 12:52:55 51°13.902 2°48.917 53.6 0.8 220 11
2005-05-13 12:53:55 51°13.893 2°48.902 29.9 0.9 242 11.2
2005-05-13 12:54:55 51°13.887 2°48.867 355.9 1.7 253 11.1
2005-05-13 12:55:55 51°13.882 2°48.816 333.7 1.9 267 11.2
2005-05-13 12:56:55 51°13.875 2°48.761 319.6 2.6 275 11.6
2005-05-13 12:57:55 51°13.902 2°48.691 353.4 2.8 320 11.6
2005-05-13 12:58:54 51°13.947 2°48.688 27.1 3.3 17 12
2005-05-13 12:59:55 51°13.995 2°48.745 49.1 3.4 45 11.8
2005-05-13 13:00:55 51°14.013 2°48.829 67.9 3.7 77 12.1
2005-05-13 13:01:55 51°14.025 2°48.92 67.9 3.6 79 12
2005-05-13 13:02:55 51°14.043 2°49.004 63.6 3.5 74 12.1
2005-05-13 13:03:55 51°14.047 2°49.103 73.8 3.5 83 11.6
2005-05-13 13:04:55 51°14.058 2°49.183 66.6 2.6 76 11.4
2005-05-13 13:05:55 51°14.063 2°49.249 68.2 2.4 86 11.6
2005-05-13 13:06:54 51°14.064 2°49.308 70.9 2.2 88 11.2
2005-05-13 13:07:54 51°14.063 2°49.376 74.8 2.7 95 11
2005-05-13 13:08:55 51°14.063 2°49.455 72.1 2.9 84 11.1
2005-05-13 13:09:55 51°14.073 2°49.528 60.5 2.7 71 10.9
2005-05-13 13:10:55 51°14.089 2°49.595 63 2.8 74 10.7
2005-05-13 13:11:55 51°14.099 2°49.668 69.6 2.8 78 10.9
2005-05-13 13:12:55 51°14.101 2°49.749 76.8 3.1 89 10.3
2005-05-13 13:13:54 51°14.106 2°49.827 67.7 2.9 74 10.8
2005-05-13 13:14:55 51°14.122 2°49.902 60.8 2.9 65 10.5
2005-05-13 13:15:54 51°14.137 2°49.969 69.3 2.9 79 10.3
2005-05-13 13:16:54 51°14.136 2°50.049 83.4 3.2 103 10.5
2005-05-13 13:17:55 51°14.117 2°50.138 100.4 3.6 110 10.4
2005-05-13 13:18:54 51°14.093 2°50.193 104.2 2.1 138 10
2005-05-13 13:19:54 51°14.07 2°50.216 104.9 1.7 161 10.2
2005-05-13 13:20:54 51°14.05 2°50.232 91.2 1.4 145 9.6
2005-05-13 13:21:55 51°14.05 2°50.279 63.3 3.5 69 10
2005-05-13 13:22:55 51°14.099 2°50.447 65.3 9.4 62 9.8
2005-05-13 13:23:55 51°14.171 2°50.693 65.6 10.6 64 10.1
2005-05-13 13:24:54 51°14.245 2°50.949 67.2 10.9 67 10
2005-05-13 13:25:54 51°14.318 2°51.225 68 11.5 67 10
2005-05-13 13:26:55 51°14.397 2°51.521 68.1 12.1 68 10
2005-05-13 13:27:55 51°14.472 2°51.813 69.8 12 69 10.3
2005-05-13 13:28:55 51°14.537 2°52.113 73.1 12.1 74 10.4
2005-05-13 13:29:54 51°14.579 2°52.426 79.4 12.2 81 10.5
2005-05-13 13:30:55 51°14.598 2°52.754 88 12.3 90 10.2
2005-05-13 13:31:55 51°14.581 2°53.086 99.3 12.7 99 10.1
2005-05-13 13:32:55 51°14.532 2°53.41 103.6 12.6 103 10
2005-05-13 13:33:55 51°14.485 2°53.733 103.1 12.5 100 11.2
2005-05-13 13:34:55 51°14.454 2°54.063 99.2 12.7 98 10.7
2005-05-13 13:35:55 51°14.427 2°54.398 98.2 12.8 96 11.1
2005-05-13 13:36:55 51°14.407 2°54.737 95.8 12.9 93 11.4
2005-05-13 13:37:55 51°14.349 2°55.06 118.8 12.8 117 11.3
2005-05-13 13:38:55 51°14.224 2°55.304 136.8 11.3 137 11.3
2005-05-13 13:39:54 51°14.087 2°55.444 155.5 9.2 154 11.5
2005-05-13 13:40:55 51°13.962 2°55.536 157.9 7.5 156 10.8
2005-05-13 13:41:54 51°13.855 2°55.609 158.9 6.4 157 11.1
2005-05-13 13:42:54 51°13.776 2°55.688 141.3 5.3 138 10.9
2005-05-13 13:43:55 51°13.714 2°55.793 133.5 5.8 132 12.8
2005-05-13 13:44:55 51°13.653 2°55.917 127.5 5.5 125 10.5
2005-05-13 13:45:55 51°13.617 2°56.025 116.6 4.3 115 10.5
2005-05-13 13:46:54 51°13.598 2°56.087 124.9 1.7 121 8.9
2005-05-13 13:47:54 51°13.593 2°56.1 118.2 0.3 135 8.3
2005-05-13 13:48:55 51°13.594 2°56.105 112.9 0.2 57 8.3
2005-05-13 13:49:55 51°13.595 2°56.102 124.9 0.3 305 8.3